Aviation Digital Data Service (ADDS)

Output produced by METARs form (0726 UTC 22 January 2021)
found at http://aviationweather.gov/metar/data/
 
KSLC 220540Z 2206/2312 17004KT P6SM FEW070 BKN100 
     FM222000 22010KT P6SM VCSH SCT030 BKN060 
     FM230200 18006KT 4SM -RA SCT020 OVC040 
     FM231100 20003KT 3SM -RASN OVC020